Prairie City, Iowa
Current Conditions -  °F | °C
As of 11:15 AM on Thursday 18 Dec 2014 (Local Time) from KTNU Reporting Station
Unknown Precip Unknown Precip  
Wind Chill: 23°   Ceiling: Unl
Heat Index: 23°   Visibility: 2.5mi
Dew Point: 19°   Wind: 0mph
Humidity: 86%   Direction: NA
Pressure: 30.28"   Gusts: NA
Location:  41.6°N, 93.24°W
Report Text: KTNU 181715Z AUTO 00000KT 2 1/2SM -UP CLR M05/M07 A3028 RMK AO2
Loading
Personal Weather Stations






























Interactive Weather Map New forecast layout! Learn more

10-Day Weather Forecast

Advertisements
Track Severe Weather on mobile